Time;durP1;ratioP1;P1;durP2;ratioP2;P2;SDS_P1;SDS_P2;PMS_P1;PMS_P2;Temp;Humidity;BMP_temperature;BMP_pressure;BME280_temperature;BME280_humidity;BME280_pressure;Samples;Min_cycle;Max_cycle;Signal;HPM_P1;HPM_P2
2023/07/19 00:01:04;;;;;;;3.17;1.63;;;;;;;;;;5035750;28;20413;-75
2023/07/19 00:03:30;;;;;;;4.00;1.60;;;;;;;;;;5039568;28;20462;-67
2023/07/19 00:05:55;;;;;;;4.72;1.75;;;;;;;;;;5036691;28;20037;-73
2023/07/19 00:08:21;;;;;;;7.40;1.92;;;;;;;;;;5047210;28;20466;-75
2023/07/19 00:10:46;;;;;;;4.40;1.60;;;;;;;;;;5055644;28;20175;-75
2023/07/19 00:13:12;;;;;;;3.63;1.60;;;;;;;;;;5044387;28;20032;-72
2023/07/19 00:15:38;;;;;;;4.55;1.80;;;;;;;;;;5035507;28;20029;-74
2023/07/19 00:18:03;;;;;;;3.60;1.50;;;;;;;;;;5038970;28;20028;-75
2023/07/19 00:20:29;;;;;;;4.53;2.08;;;;;;;;;;5041824;28;20026;-75
2023/07/19 00:22:54;;;;;;;6.47;1.88;;;;;;;;;;5036388;28;20021;-75
2023/07/19 00:25:20;;;;;;;6.15;1.70;;;;;;;;;;5055487;28;20021;-76
2023/07/19 00:27:48;;;;;;;2.90;1.73;;;;;;;;;;5055436;28;20036;-74
2023/07/19 00:30:14;;;;;;;4.95;1.58;;;;;;;;;;5037331;28;20053;-75
2023/07/19 00:32:39;;;;;;;6.32;1.90;;;;;;;;;;5035393;28;20104;-67
2023/07/19 00:35:06;;;;;;;4.68;1.80;;;;;;;;;;5054957;28;20079;-76
2023/07/19 00:37:31;;;;;;;3.05;1.85;;;;;;;;;;5054720;28;20048;-74
2023/07/19 00:39:58;;;;;;;4.10;1.65;;;;;;;;;;5035419;28;20467;-75
2023/07/19 00:42:24;;;;;;;4.15;1.60;;;;;;;;;;5054925;28;20037;-76
2023/07/19 00:44:49;;;;;;;4.43;1.90;;;;;;;;;;5054973;28;20028;-72
2023/07/19 00:47:15;;;;;;;8.45;1.95;;;;;;;;;;5053889;28;20048;-71
2023/07/19 00:49:42;;;;;;;3.83;1.60;;;;;;;;;;5043740;28;20389;-76
2023/07/19 00:52:08;;;;;;;4.13;2.00;;;;;;;;;;5052931;28;20487;-76
2023/07/19 00:54:33;;;;;;;4.57;1.40;;;;;;;;;;5035086;28;20032;-74
2023/07/19 00:57:00;;;;;;;11.20;2.20;;;;;;;;;;5043016;28;20108;-72
2023/07/19 00:59:26;;;;;;;4.57;1.90;;;;;;;;;;5054941;28;20500;-66
2023/07/19 01:01:51;;;;;;;5.30;1.83;;;;;;;;;;5047972;28;20029;-66
2023/07/19 01:04:17;;;;;;;3.95;1.90;;;;;;;;;;5034737;28;20029;-66
2023/07/19 01:06:43;;;;;;;5.20;2.00;;;;;;;;;;5046210;28;20025;-66
2023/07/19 01:09:11;;;;;;;5.40;2.00;;;;;;;;;;5053462;28;20447;-65
2023/07/19 01:11:37;;;;;;;4.32;1.90;;;;;;;;;;5034555;28;20033;-67
2023/07/19 01:14:02;;;;;;;3.97;1.80;;;;;;;;;;5044961;28;20036;-65
2023/07/19 01:16:27;;;;;;;4.10;2.03;;;;;;;;;;5049335;28;20025;-68
2023/07/19 01:18:53;;;;;;;4.57;1.77;;;;;;;;;;5040338;28;20105;-72
2023/07/19 01:21:18;;;;;;;5.75;1.90;;;;;;;;;;5034665;28;20022;-75
2023/07/19 01:23:44;;;;;;;4.47;1.92;;;;;;;;;;5034667;28;20061;-66
2023/07/19 01:26:09;;;;;;;12.07;2.35;;;;;;;;;;5053598;28;20064;-65
2023/07/19 01:28:34;;;;;;;3.67;1.90;;;;;;;;;;5054375;28;20032;-66
2023/07/19 01:31:04;;;;;;;5.55;1.88;;;;;;;;;;5042580;28;20032;-67
2023/07/19 01:33:29;;;;;;;6.68;1.90;;;;;;;;;;5034070;28;20382;-68
2023/07/19 01:35:54;;;;;;;4.38;1.98;;;;;;;;;;5039554;28;20044;-67
2023/07/19 01:38:20;;;;;;;4.22;1.88;;;;;;;;;;5054243;28;20040;-71
2023/07/19 01:40:45;;;;;;;3.55;1.77;;;;;;;;;;5054283;28;20029;-69
2023/07/19 01:43:11;;;;;;;3.30;1.65;;;;;;;;;;5034820;28;20402;-68
2023/07/19 01:45:36;;;;;;;3.67;1.80;;;;;;;;;;5040115;28;20082;-65
2023/07/19 01:48:02;;;;;;;4.15;1.98;;;;;;;;;;5053579;28;20095;-75
2023/07/19 01:50:27;;;;;;;3.38;1.92;;;;;;;;;;5036243;28;20029;-75
2023/07/19 01:52:52;;;;;;;4.53;1.90;;;;;;;;;;5033603;28;20064;-75
2023/07/19 01:55:18;;;;;;;4.88;2.17;;;;;;;;;;5034094;28;20075;-75
2023/07/19 01:57:43;;;;;;;3.50;1.73;;;;;;;;;;5033639;28;20094;-74
2023/07/19 02:00:09;;;;;;;5.18;2.00;;;;;;;;;;5032586;28;20048;-73
2023/07/19 02:02:35;;;;;;;4.40;1.80;;;;;;;;;;5033636;28;20489;-75
2023/07/19 02:05:00;;;;;;;5.03;2.03;;;;;;;;;;5033961;28;20159;-75
2023/07/19 02:07:25;;;;;;;6.55;1.80;;;;;;;;;;5033851;28;20021;-75
2023/07/19 02:09:51;;;;;;;5.13;2.17;;;;;;;;;;5033754;28;20386;-74
2023/07/19 02:12:16;;;;;;;6.00;1.90;;;;;;;;;;5032364;28;20485;-76
2023/07/19 02:14:42;;;;;;;8.38;2.17;;;;;;;;;;5033681;28;20037;-76
2023/07/19 02:17:07;;;;;;;7.25;1.98;;;;;;;;;;5032163;28;20022;-76
2023/07/19 02:19:32;;;;;;;5.95;1.98;;;;;;;;;;5033487;28;20325;-76
2023/07/19 02:21:58;;;;;;;6.57;2.10;;;;;;;;;;5033644;28;20065;-76
2023/07/19 02:24:23;;;;;;;3.78;2.05;;;;;;;;;;5033497;28;20026;-76
2023/07/19 02:26:49;;;;;;;4.07;1.70;;;;;;;;;;5033523;28;20029;-76
2023/07/19 02:29:14;;;;;;;5.15;2.15;;;;;;;;;;5033478;28;20060;-75
2023/07/19 02:31:39;;;;;;;6.05;1.80;;;;;;;;;;5032865;28;20025;-73
2023/07/19 02:34:06;;;;;;;6.93;2.10;;;;;;;;;;5033330;28;20048;-75
2023/07/19 02:36:34;;;;;;;8.90;2.10;;;;;;;;;;5033386;28;20087;-74
2023/07/19 02:39:01;;;;;;;5.78;1.88;;;;;;;;;;5033122;28;20378;-75
2023/07/19 02:41:26;;;;;;;3.75;1.98;;;;;;;;;;5033127;28;20100;-75
2023/07/19 02:43:52;;;;;;;3.90;2.00;;;;;;;;;;5036367;28;20113;-75
2023/07/19 02:46:17;;;;;;;5.57;1.95;;;;;;;;;;5052665;28;20040;-76
2023/07/19 02:48:43;;;;;;;5.47;1.92;;;;;;;;;;5049476;28;20038;-69
2023/07/19 02:51:08;;;;;;;4.35;2.15;;;;;;;;;;5032914;28;20044;-75
2023/07/19 02:53:34;;;;;;;3.92;1.75;;;;;;;;;;5038658;28;20025;-75
2023/07/19 02:55:59;;;;;;;6.72;2.38;;;;;;;;;;5032899;28;20099;-76
2023/07/19 02:58:25;;;;;;;7.28;3.70;;;;;;;;;;5032854;28;20029;-74
2023/07/19 03:00:53;;;;;;;6.00;2.40;;;;;;;;;;5032629;28;20466;-70
2023/07/19 03:03:21;;;;;;;9.23;3.70;;;;;;;;;;5032815;28;20056;-75
2023/07/19 03:05:47;;;;;;;4.25;2.85;;;;;;;;;;5032684;28;20029;-75
2023/07/19 03:08:12;;;;;;;4.55;2.15;;;;;;;;;;5032573;28;20404;-75
2023/07/19 03:10:39;;;;;;;4.32;1.95;;;;;;;;;;5032159;28;20037;-74
2023/07/19 03:13:05;;;;;;;6.60;2.00;;;;;;;;;;5032666;28;20028;-73
2023/07/19 03:15:32;;;;;;;4.93;2.00;;;;;;;;;;5032324;28;20104;-74
2023/07/19 03:18:04;;;;;;;5.95;2.08;;;;;;;;;;5032527;28;20112;-68
2023/07/19 03:20:30;;;;;;;8.57;2.20;;;;;;;;;;5032577;28;20536;-73
2023/07/19 03:22:56;;;;;;;6.20;2.00;;;;;;;;;;5032505;28;20033;-65
2023/07/19 03:25:25;;;;;;;8.07;2.47;;;;;;;;;;5032735;28;20075;-66
2023/07/19 03:27:51;;;;;;;4.38;2.17;;;;;;;;;;5032631;28;20048;-65
2023/07/19 03:30:17;;;;;;;3.90;2.03;;;;;;;;;;5032236;28;20025;-70
2023/07/19 03:32:42;;;;;;;7.00;2.22;;;;;;;;;;5032398;28;20025;-64
2023/07/19 03:35:08;;;;;;;3.92;2.08;;;;;;;;;;5032323;28;20041;-67
2023/07/19 03:37:34;;;;;;;13.57;2.67;;;;;;;;;;5032274;28;20463;-69
2023/07/19 03:40:00;;;;;;;8.52;2.78;;;;;;;;;;5032436;28;20466;-74
2023/07/19 03:42:26;;;;;;;6.05;2.10;;;;;;;;;;5032261;28;20032;-74
2023/07/19 03:44:51;;;;;;;6.25;2.17;;;;;;;;;;5042174;28;20054;-65
2023/07/19 03:47:17;;;;;;;4.80;1.75;;;;;;;;;;5052012;28;20040;-66
2023/07/19 03:49:43;;;;;;;7.43;2.20;;;;;;;;;;5040642;28;20060;-67
2023/07/19 03:52:08;;;;;;;4.90;2.10;;;;;;;;;;5037970;28;20033;-66
2023/07/19 03:54:33;;;;;;;10.57;2.78;;;;;;;;;;5032175;28;20025;-67
2023/07/19 03:56:59;;;;;;;9.93;2.50;;;;;;;;;;5031988;28;20021;-67
2023/07/19 03:59:24;;;;;;;9.40;2.20;;;;;;;;;;5031980;28;20390;-66
2023/07/19 04:01:50;;;;;;;4.55;2.15;;;;;;;;;;5032114;28;20505;-65
2023/07/19 04:04:15;;;;;;;4.95;2.53;;;;;;;;;;5032026;28;20471;-66
2023/07/19 04:06:40;;;;;;;5.30;2.17;;;;;;;;;;5032115;28;20374;-66
2023/07/19 04:09:06;;;;;;;7.68;2.22;;;;;;;;;;5030703;28;20040;-73
2023/07/19 04:11:31;;;;;;;5.03;2.85;;;;;;;;;;5031970;28;20026;-67
2023/07/19 04:13:57;;;;;;;7.60;2.17;;;;;;;;;;5031864;28;20111;-71
2023/07/19 04:16:22;;;;;;;6.70;2.20;;;;;;;;;;5031910;28;20156;-65
2023/07/19 04:18:48;;;;;;;6.70;2.60;;;;;;;;;;5031841;28;20044;-65
2023/07/19 04:21:13;;;;;;;7.38;2.55;;;;;;;;;;5033801;28;20083;-65
2023/07/19 04:23:39;;;;;;;4.55;2.38;;;;;;;;;;5035529;28;20079;-65
2023/07/19 04:26:05;;;;;;;5.18;2.28;;;;;;;;;;5035594;28;20499;-66
2023/07/19 04:28:31;;;;;;;15.20;2.90;;;;;;;;;;5035343;28;20034;-65
2023/07/19 04:30:56;;;;;;;5.95;2.47;;;;;;;;;;5035381;28;20036;-68
2023/07/19 04:33:22;;;;;;;6.15;2.50;;;;;;;;;;5035452;28;20021;-65
2023/07/19 04:35:47;;;;;;;14.55;2.78;;;;;;;;;;5035324;28;20039;-67
2023/07/19 04:38:13;;;;;;;6.45;2.70;;;;;;;;;;5035386;28;20499;-71
2023/07/19 04:40:38;;;;;;;6.72;2.80;;;;;;;;;;5035454;28;20466;-69
2023/07/19 04:43:04;;;;;;;6.60;2.40;;;;;;;;;;5034783;28;20033;-66
2023/07/19 04:45:30;;;;;;;6.57;2.75;;;;;;;;;;5049321;28;20040;-69
2023/07/19 04:47:56;;;;;;;9.30;2.60;;;;;;;;;;5054912;28;20041;-66
2023/07/19 04:50:24;;;;;;;6.03;2.30;;;;;;;;;;5036674;28;20390;-69
2023/07/19 04:52:50;;;;;;;5.18;2.33;;;;;;;;;;5040716;28;20028;-68
2023/07/19 04:55:15;;;;;;;8.13;2.10;;;;;;;;;;5035012;28;20025;-72
2023/07/19 04:57:41;;;;;;;4.28;2.15;;;;;;;;;;5034773;28;20057;-66
2023/07/19 05:00:11;;;;;;;9.30;2.30;;;;;;;;;;5034942;28;20108;-75
2023/07/19 05:02:38;;;;;;;8.48;1.98;;;;;;;;;;5034876;28;20030;-71
2023/07/19 05:05:05;;;;;;;4.18;1.80;;;;;;;;;;5034847;28;20448;-66
2023/07/19 05:07:34;;;;;;;8.55;2.30;;;;;;;;;;5034752;28;20079;-67
2023/07/19 05:10:00;;;;;;;8.80;2.10;;;;;;;;;;5034589;28;20021;-68
2023/07/19 05:12:25;;;;;;;4.43;1.88;;;;;;;;;;5034428;28;20087;-64
2023/07/19 05:14:51;;;;;;;3.67;2.00;;;;;;;;;;5034716;28;20025;-72
2023/07/19 05:17:16;;;;;;;3.90;1.98;;;;;;;;;;5034670;28;20134;-77
2023/07/19 05:19:42;;;;;;;7.03;2.22;;;;;;;;;;5033208;28;20101;-76
2023/07/19 05:22:07;;;;;;;4.43;1.83;;;;;;;;;;5034628;28;20040;-75
2023/07/19 05:24:33;;;;;;;5.07;1.80;;;;;;;;;;5034448;28;20078;-77
2023/07/19 05:26:58;;;;;;;3.13;1.80;;;;;;;;;;5034375;28;20067;-76
2023/07/19 05:29:23;;;;;;;4.97;1.85;;;;;;;;;;5034432;28;20079;-76
2023/07/19 05:31:49;;;;;;;2.78;1.70;;;;;;;;;;5033625;28;20029;-75
2023/07/19 05:34:14;;;;;;;5.18;2.10;;;;;;;;;;5034303;28;20025;-76
2023/07/19 05:36:40;;;;;;;3.95;1.60;;;;;;;;;;5034412;28;20441;-66
2023/07/19 05:39:05;;;;;;;5.82;1.67;;;;;;;;;;5034190;28;20032;-67
2023/07/19 05:41:30;;;;;;;3.33;1.70;;;;;;;;;;5033915;28;20056;-76
2023/07/19 05:43:57;;;;;;;5.10;2.08;;;;;;;;;;5034569;28;20021;-72
2023/07/19 05:46:23;;;;;;;5.78;2.20;;;;;;;;;;5053951;28;20373;-66
2023/07/19 05:48:49;;;;;;;8.02;2.45;;;;;;;;;;5049559;28;20100;-69
2023/07/19 05:51:14;;;;;;;6.03;2.30;;;;;;;;;;5034025;28;20459;-67
2023/07/19 05:53:40;;;;;;;7.97;2.67;;;;;;;;;;5039767;28;20501;-66
2023/07/19 05:56:05;;;;;;;6.63;2.38;;;;;;;;;;5033572;28;20104;-69
2023/07/19 05:58:31;;;;;;;6.30;2.60;;;;;;;;;;5033947;28;20087;-69
2023/07/19 06:00:57;;;;;;;4.85;2.28;;;;;;;;;;5033766;28;20073;-75
2023/07/19 06:03:22;;;;;;;10.65;3.47;;;;;;;;;;5033890;28;20025;-74
2023/07/19 06:05:48;;;;;;;10.88;3.40;;;;;;;;;;5033838;28;20022;-76
2023/07/19 06:08:14;;;;;;;13.98;3.50;;;;;;;;;;5033598;28;20045;-76
2023/07/19 06:10:39;;;;;;;9.25;3.20;;;;;;;;;;5033302;28;20179;-72
2023/07/19 06:13:06;;;;;;;14.52;4.40;;;;;;;;;;5033612;28;20029;-77
2023/07/19 06:15:34;;;;;;;18.67;6.13;;;;;;;;;;5033663;28;20139;-76
2023/07/19 06:18:00;;;;;;;13.90;5.15;;;;;;;;;;5033434;28;20036;-74
2023/07/19 06:20:26;;;;;;;17.90;6.15;;;;;;;;;;5032166;28;20107;-77
2023/07/19 06:22:52;;;;;;;24.83;8.10;;;;;;;;;;5033303;28;20049;-69
2023/07/19 06:25:18;;;;;;;24.95;9.15;;;;;;;;;;5033588;28;20463;-75
2023/07/19 06:27:43;;;;;;;26.27;9.02;;;;;;;;;;5033351;28;20091;-76
2023/07/19 06:30:12;;;;;;;25.02;9.35;;;;;;;;;;5033182;28;20029;-76
2023/07/19 06:32:38;;;;;;;24.58;7.93;;;;;;;;;;5029340;28;20049;-74
2023/07/19 06:35:05;;;;;;;19.33;7.75;;;;;;;;;;5031820;28;20470;-68
2023/07/19 06:37:31;;;;;;;14.13;5.90;;;;;;;;;;5018544;28;20033;-72
2023/07/19 06:39:57;;;;;;;14.45;5.18;;;;;;;;;;5032836;28;20041;-77
2023/07/19 06:42:22;;;;;;;13.15;5.70;;;;;;;;;;5032698;28;20034;-75
2023/07/19 06:44:48;;;;;;;11.90;4.72;;;;;;;;;;5033298;28;20043;-76
2023/07/19 06:47:14;;;;;;;10.73;4.60;;;;;;;;;;5051232;28;20032;-73
2023/07/19 06:49:40;;;;;;;9.88;4.05;;;;;;;;;;5032299;28;20120;-67
2023/07/19 06:52:06;;;;;;;8.93;3.92;;;;;;;;;;5033386;28;20120;-69
2023/07/19 06:54:32;;;;;;;11.23;3.00;;;;;;;;;;5016091;28;20025;-68
2023/07/19 06:56:57;;;;;;;8.27;3.20;;;;;;;;;;5028701;28;20064;-73
2023/07/19 06:59:22;;;;;;;6.30;2.60;;;;;;;;;;5031160;28;20383;-68
2023/07/19 07:01:48;;;;;;;10.98;2.90;;;;;;;;;;5012641;28;20490;-72
2023/07/19 07:04:13;;;;;;;6.25;3.03;;;;;;;;;;5012855;28;20476;-75
2023/07/19 07:06:39;;;;;;;8.88;3.08;;;;;;;;;;5012610;28;20034;-69
2023/07/19 07:09:04;;;;;;;7.88;3.05;;;;;;;;;;5022780;28;20022;-72
2023/07/19 07:11:30;;;;;;;6.63;2.70;;;;;;;;;;5032228;28;20028;-74
2023/07/19 07:13:55;;;;;;;7.38;2.75;;;;;;;;;;5032459;28;20467;-69
2023/07/19 07:16:20;;;;;;;7.45;3.08;;;;;;;;;;5031040;28;20036;-67
2023/07/19 07:18:46;;;;;;;8.55;2.80;;;;;;;;;;5032274;28;20025;-68
2023/07/19 07:21:11;;;;;;;6.38;2.58;;;;;;;;;;5031575;28;20088;-67
2023/07/19 07:23:37;;;;;;;5.75;2.60;;;;;;;;;;5032243;28;20083;-75
2023/07/19 07:26:03;;;;;;;4.45;2.30;;;;;;;;;;5025170;28;20021;-68
2023/07/19 07:28:29;;;;;;;6.40;2.70;;;;;;;;;;5031095;28;20164;-69
2023/07/19 07:30:54;;;;;;;7.63;2.42;;;;;;;;;;5032064;28;20034;-69
2023/07/19 07:33:19;;;;;;;5.43;2.58;;;;;;;;;;5032154;28;20029;-65
2023/07/19 07:35:45;;;;;;;6.68;2.42;;;;;;;;;;5021845;28;20026;-74
2023/07/19 07:38:11;;;;;;;10.65;2.85;;;;;;;;;;5032462;28;20028;-68
2023/07/19 07:40:36;;;;;;;7.85;2.72;;;;;;;;;;5030854;28;20037;-66
2023/07/19 07:43:02;;;;;;;7.50;2.92;;;;;;;;;;5032037;28;20111;-69
2023/07/19 07:45:28;;;;;;;11.88;3.45;;;;;;;;;;5032037;28;20172;-70
2023/07/19 07:47:53;;;;;;;8.75;3.38;;;;;;;;;;5050093;28;20044;-70
2023/07/19 07:50:19;;;;;;;7.43;2.88;;;;;;;;;;5035245;28;20045;-74
2023/07/19 07:52:44;;;;;;;8.90;2.58;;;;;;;;;;5045995;28;20033;-67
2023/07/19 07:55:10;;;;;;;8.50;2.58;;;;;;;;;;5052240;28;20039;-68
2023/07/19 07:57:37;;;;;;;7.65;2.83;;;;;;;;;;5055607;28;20025;-74
2023/07/19 08:00:06;;;;;;;9.75;2.75;;;;;;;;;;5033154;28;20104;-67
2023/07/19 08:02:32;;;;;;;6.40;2.30;;;;;;;;;;5015929;28;20371;-66
2023/07/19 08:04:57;;;;;;;7.72;2.30;;;;;;;;;;5041330;28;20029;-66
2023/07/19 08:07:25;;;;;;;6.07;2.10;;;;;;;;;;5055385;28;20025;-67
2023/07/19 08:09:52;;;;;;;4.80;1.70;;;;;;;;;;5055501;28;20318;-66
2023/07/19 08:12:20;;;;;;;4.28;1.77;;;;;;;;;;5055415;28;20029;-65
2023/07/19 08:14:46;;;;;;;5.80;1.77;;;;;;;;;;5055553;28;20056;-65
2023/07/19 08:17:11;;;;;;;5.40;2.08;;;;;;;;;;5053901;28;20057;-68
2023/07/19 08:19:37;;;;;;;3.78;1.40;;;;;;;;;;5034386;28;20028;-66
2023/07/19 08:22:04;;;;;;;4.35;1.40;;;;;;;;;;5035177;28;20497;-66
2023/07/19 08:24:30;;;;;;;4.20;1.23;;;;;;;;;;5035380;28;20489;-66
2023/07/19 08:26:55;;;;;;;4.13;1.30;;;;;;;;;;5035027;28;20041;-69
2023/07/19 08:29:21;;;;;;;4.53;1.20;;;;;;;;;;5035101;28;20029;-66
2023/07/19 08:31:46;;;;;;;3.97;1.38;;;;;;;;;;5034988;28;20111;-66
2023/07/19 08:34:11;;;;;;;5.00;1.42;;;;;;;;;;5034722;28;20064;-67
2023/07/19 08:36:37;;;;;;;2.83;1.30;;;;;;;;;;5034937;28;20021;-66
2023/07/19 08:39:02;;;;;;;5.80;1.40;;;;;;;;;;5034815;28;20083;-66
2023/07/19 08:41:31;;;;;;;4.32;1.20;;;;;;;;;;5034715;28;20080;-66
2023/07/19 08:43:57;;;;;;;4.32;1.30;;;;;;;;;;5035158;28;20025;-72
2023/07/19 08:46:22;;;;;;;2.58;1.00;;;;;;;;;;5035706;28;20029;-74
2023/07/19 08:48:48;;;;;;;4.93;1.27;;;;;;;;;;5050382;28;20065;-74
2023/07/19 08:51:14;;;;;;;2.60;1.00;;;;;;;;;;5034260;28;20075;-74
2023/07/19 08:53:40;;;;;;;2.80;1.00;;;;;;;;;;5054801;28;20400;-74
2023/07/19 08:56:05;;;;;;;5.75;1.40;;;;;;;;;;5054363;28;20116;-75
2023/07/19 08:58:36;;;;;;;5.63;1.17;;;;;;;;;;5054708;28;20120;-74
2023/07/19 09:01:02;;;;;;;2.58;1.00;;;;;;;;;;5037538;28;20087;-74
2023/07/19 09:03:28;;;;;;;4.78;1.63;;;;;;;;;;5035980;28;20194;-72
2023/07/19 09:05:54;;;;;;;3.53;1.33;;;;;;;;;;5034559;28;20437;-74
2023/07/19 09:08:19;;;;;;;3.25;1.33;;;;;;;;;;5033529;28;20024;-74
2023/07/19 09:10:46;;;;;;;4.60;1.13;;;;;;;;;;5034349;28;20052;-75
2023/07/19 09:13:18;;;;;;;3.50;1.20;;;;;;;;;;5034273;28;20029;-75
2023/07/19 09:15:47;;;;;;;3.80;1.20;;;;;;;;;;5034386;28;20022;-74
2023/07/19 09:18:13;;;;;;;4.28;1.20;;;;;;;;;;5034039;28;20079;-74
2023/07/19 09:20:39;;;;;;;4.00;1.10;;;;;;;;;;5032978;28;20021;-74
2023/07/19 09:23:06;;;;;;;4.07;1.63;;;;;;;;;;5033891;28;20025;-74
2023/07/19 09:25:31;;;;;;;5.82;1.60;;;;;;;;;;5034088;28;20100;-74
2023/07/19 09:27:57;;;;;;;6.78;1.50;;;;;;;;;;5066129;28;20084;-73
2023/07/19 09:30:22;;;;;;;3.55;1.20;;;;;;;;;;5034174;28;20150;-74
2023/07/19 09:33:00;;;;;;;3.85;1.20;;;;;;;;;;5033774;28;20028;-75
2023/07/19 09:35:28;;;;;;;3.97;1.20;;;;;;;;;;5033531;28;20025;-73
2023/07/19 09:37:54;;;;;;;3.33;1.33;;;;;;;;;;5033928;28;20029;-74
2023/07/19 09:40:21;;;;;;;5.95;2.25;;;;;;;;;;5035187;28;20021;-72
2023/07/19 09:42:48;;;;;;;3.20;1.38;;;;;;;;;;5036413;28;20055;-71
2023/07/19 09:45:16;;;;;;;3.25;1.20;;;;;;;;;;5046167;28;20036;-72
2023/07/19 09:47:43;;;;;;;6.13;1.45;;;;;;;;;;5043958;28;20041;-71
2023/07/19 09:50:09;;;;;;;4.63;1.70;;;;;;;;;;5028397;28;20061;-72
2023/07/19 09:52:37;;;;;;;3.72;1.40;;;;;;;;;;5051420;28;20117;-74
2023/07/19 09:55:04;;;;;;;2.85;1.30;;;;;;;;;;5047654;28;20033;-72
2023/07/19 09:57:31;;;;;;;2.97;1.20;;;;;;;;;;5040156;28;20423;-71
2023/07/19 09:59:56;;;;;;;2.90;1.20;;;;;;;;;;5037067;28;20044;-74
2023/07/19 10:02:23;;;;;;;11.75;1.48;;;;;;;;;;5047080;28;20490;-70
2023/07/19 10:04:50;;;;;;;7.07;1.90;;;;;;;;;;5050840;28;20517;-71
2023/07/19 10:07:25;;;;;;;94.32;14.55;;;;;;;;;;5051454;28;20036;-65
2023/07/19 10:10:13;;;;;;;23.48;4.43;;;;;;;;;;5051442;28;20040;-67
2023/07/19 10:12:40;;;;;;;21.70;4.93;;;;;;;;;;5050364;28;20037;-69
2023/07/19 10:15:07;;;;;;;12.93;3.05;;;;;;;;;;5051088;28;20156;-69
2023/07/19 10:17:41;;;;;;;25.40;4.88;;;;;;;;;;5049509;28;20029;-65
2023/07/19 10:20:06;;;;;;;25.40;4.80;;;;;;;;;;5040199;28;20028;-68
2023/07/19 10:22:49;;;;;;;11.07;2.83;;;;;;;;;;5030669;28;20041;-67
2023/07/19 10:25:20;;;;;;;8.10;2.40;;;;;;;;;;5029808;28;20076;-71
2023/07/19 10:27:58;;;;;;;4.25;1.42;;;;;;;;;;5030738;28;20053;-69
2023/07/19 10:30:46;;;;;;;8.98;1.42;;;;;;;;;;5030403;28;20549;-70
2023/07/19 10:33:12;;;;;;;5.57;1.25;;;;;;;;;;5031120;28;20033;-70
2023/07/19 10:35:39;;;;;;;2.72;1.20;;;;;;;;;;5030819;28;20038;-66
2023/07/19 10:38:05;;;;;;;11.30;2.42;;;;;;;;;;5029826;28;20021;-66
2023/07/19 10:40:30;;;;;;;5.47;2.10;;;;;;;;;;5024451;28;20365;-67
2023/07/19 10:42:56;;;;;;;4.20;1.52;;;;;;;;;;5013615;28;20056;-67
2023/07/19 10:45:26;;;;;;;3.00;1.30;;;;;;;;;;5015644;28;20463;-65
2023/07/19 10:47:52;;;;;;;3.28;1.23;;;;;;;;;;5032538;28;20037;-65
2023/07/19 10:50:17;;;;;;;3.45;1.67;;;;;;;;;;5032328;28;20033;-65
2023/07/19 10:52:46;;;;;;;3.30;1.30;;;;;;;;;;5043511;28;20474;-67
2023/07/19 10:55:13;;;;;;;3.05;1.20;;;;;;;;;;5052399;28;20150;-65
2023/07/19 10:57:38;;;;;;;6.20;1.60;;;;;;;;;;5048222;28;20022;-65
2023/07/19 11:00:12;;;;;;;3.63;1.40;;;;;;;;;;5032034;28;20025;-66
2023/07/19 11:02:41;;;;;;;6.20;1.30;;;;;;;;;;5032375;28;20033;-66
2023/07/19 11:05:07;;;;;;;3.47;1.70;;;;;;;;;;5032240;28;20026;-67
2023/07/19 11:07:33;;;;;;;5.63;1.60;;;;;;;;;;5032332;28;20028;-65
2023/07/19 11:10:01;;;;;;;5.07;1.98;;;;;;;;;;5032409;28;20374;-65
2023/07/19 11:12:27;;;;;;;6.07;2.60;;;;;;;;;;5032251;28;20037;-65
2023/07/19 11:14:58;;;;;;;7.07;3.50;;;;;;;;;;5031917;28;20356;-66
2023/07/19 11:17:29;;;;;;;7.97;3.17;;;;;;;;;;5032179;28;20033;-67
2023/07/19 11:19:55;;;;;;;7.45;3.78;;;;;;;;;;5032159;28;20056;-66
2023/07/19 11:22:24;;;;;;;7.43;4.05;;;;;;;;;;5032116;28;20064;-67
2023/07/19 11:24:52;;;;;;;5.32;3.30;;;;;;;;;;5032005;28;20025;-70
2023/07/19 11:27:18;;;;;;;6.50;3.60;;;;;;;;;;5031672;28;20124;-68
2023/07/19 11:29:48;;;;;;;15.77;5.05;;;;;;;;;;5032074;28;20024;-67
2023/07/19 11:32:18;;;;;;;10.60;3.72;;;;;;;;;;5036186;28;20044;-72
2023/07/19 11:34:48;;;;;;;6.45;2.13;;;;;;;;;;5036059;28;20060;-69
2023/07/19 11:37:24;;;;;;;5.82;1.92;;;;;;;;;;5036010;28;20030;-67
2023/07/19 11:39:51;;;;;;;7.10;2.00;;;;;;;;;;5036348;28;20077;-67
2023/07/19 11:42:45;;;;;;;4.57;2.00;;;;;;;;;;5035936;28;20033;-72
2023/07/19 11:45:19;;;;;;;6.43;1.70;;;;;;;;;;5034382;28;20036;-66
2023/07/19 11:47:48;;;;;;;3.58;1.85;;;;;;;;;;5035417;28;20495;-66
2023/07/19 11:50:14;;;;;;;4.05;1.80;;;;;;;;;;5048269;28;20068;-69
2023/07/19 11:52:48;;;;;;;5.95;2.35;;;;;;;;;;5044970;28;20032;-71
2023/07/19 11:55:15;;;;;;;4.82;1.90;;;;;;;;;;5034464;28;20442;-65
2023/07/19 11:57:41;;;;;;;6.38;2.33;;;;;;;;;;5034239;28;20391;-70
2023/07/19 12:00:08;;;;;;;5.80;2.33;;;;;;;;;;5034249;28;20056;-68
2023/07/19 12:02:34;;;;;;;9.20;2.53;;;;;;;;;;5035617;28;20029;-68
2023/07/19 12:05:00;;;;;;;9.75;3.00;;;;;;;;;;5035509;28;20025;-67
2023/07/19 12:07:25;;;;;;;5.63;2.97;;;;;;;;;;5035602;28;20489;-72
2023/07/19 12:09:50;;;;;;;7.68;2.80;;;;;;;;;;5035634;28;20029;-67
2023/07/19 12:12:16;;;;;;;5.13;2.63;;;;;;;;;;5035223;28;20025;-76
2023/07/19 12:14:41;;;;;;;6.82;2.65;;;;;;;;;;5035580;28;20036;-75
2023/07/19 12:17:07;;;;;;;6.10;1.80;;;;;;;;;;5035196;28;20029;-75
2023/07/19 12:19:33;;;;;;;3.38;1.60;;;;;;;;;;5035423;28;20028;-75
2023/07/19 12:21:59;;;;;;;4.68;1.35;;;;;;;;;;5035557;28;20371;-75
2023/07/19 12:24:24;;;;;;;3.60;1.60;;;;;;;;;;5035188;28;20025;-75
2023/07/19 12:26:50;;;;;;;8.13;2.00;;;;;;;;;;5034977;28;20021;-74
2023/07/19 12:29:15;;;;;;;2.38;1.17;;;;;;;;;;5037538;28;20025;-73
2023/07/19 12:31:41;;;;;;;4.47;1.10;;;;;;;;;;5035324;28;20415;-76
2023/07/19 12:34:06;;;;;;;3.15;1.20;;;;;;;;;;5033646;28;20030;-72
2023/07/19 12:36:32;;;;;;;6.88;1.33;;;;;;;;;;5034987;28;20025;-76
2023/07/19 12:38:57;;;;;;;3.58;1.30;;;;;;;;;;5034872;28;20029;-74
2023/07/19 12:41:23;;;;;;;3.80;1.40;;;;;;;;;;5034727;28;20021;-73
2023/07/19 12:43:49;;;;;;;1.92;1.10;;;;;;;;;;5034777;28;20035;-72
2023/07/19 12:46:14;;;;;;;2.45;1.10;;;;;;;;;;5034790;28;20029;-71
2023/07/19 12:48:40;;;;;;;5.18;2.97;;;;;;;;;;5034421;28;20449;-74
2023/07/19 12:51:06;;;;;;;6.57;2.83;;;;;;;;;;5052756;28;20457;-75
2023/07/19 12:53:33;;;;;;;5.65;2.30;;;;;;;;;;5036939;28;20021;-72
2023/07/19 12:55:58;;;;;;;6.75;2.40;;;;;;;;;;5034465;28;20036;-71
2023/07/19 12:58:24;;;;;;;6.63;2.38;;;;;;;;;;5034620;28;20104;-73
2023/07/19 13:00:50;;;;;;;6.22;2.25;;;;;;;;;;5034417;28;20038;-70
2023/07/19 13:03:15;;;;;;;4.70;1.92;;;;;;;;;;5034452;28;20087;-70
2023/07/19 13:05:41;;;;;;;4.45;2.00;;;;;;;;;;5066588;28;20021;-68
2023/07/19 13:08:06;;;;;;;5.50;2.45;;;;;;;;;;5034445;28;20025;-72
2023/07/19 13:10:32;;;;;;;4.18;1.80;;;;;;;;;;5034053;28;20025;-72
2023/07/19 13:12:57;;;;;;;4.07;1.90;;;;;;;;;;5034075;28;20083;-65
2023/07/19 13:15:23;;;;;;;4.25;1.77;;;;;;;;;;5034451;28;20029;-66
2023/07/19 13:17:48;;;;;;;5.57;1.52;;;;;;;;;;5034457;28;20112;-67
2023/07/19 13:20:14;;;;;;;5.68;2.40;;;;;;;;;;5032743;28;20022;-70
2023/07/19 13:22:40;;;;;;;4.65;2.00;;;;;;;;;;5034003;28;20071;-73
2023/07/19 13:25:06;;;;;;;3.97;1.40;;;;;;;;;;5033570;28;20052;-69
2023/07/19 13:27:32;;;;;;;4.15;1.63;;;;;;;;;;5034171;28;20025;-70
2023/07/19 13:29:58;;;;;;;3.80;1.45;;;;;;;;;;5034023;28;20026;-68
2023/07/19 13:32:23;;;;;;;3.55;1.42;;;;;;;;;;5033700;28;20039;-70
2023/07/19 13:34:49;;;;;;;2.80;1.00;;;;;;;;;;5033662;28;20029;-72
2023/07/19 13:37:14;;;;;;;4.97;1.40;;;;;;;;;;5033645;28;20030;-68
2023/07/19 13:39:40;;;;;;;4.05;1.50;;;;;;;;;;5033719;28;20060;-66
2023/07/19 13:42:06;;;;;;;3.58;1.55;;;;;;;;;;5033936;28;20033;-65
2023/07/19 13:44:31;;;;;;;3.25;1.20;;;;;;;;;;5033707;28;20026;-68
2023/07/19 13:46:58;;;;;;;1.92;1.10;;;;;;;;;;5033424;28;20471;-69
2023/07/19 13:49:23;;;;;;;2.97;1.10;;;;;;;;;;5036288;28;20398;-69
2023/07/19 13:51:49;;;;;;;2.80;0.90;;;;;;;;;;5049680;28;20029;-71
2023/07/19 13:54:14;;;;;;;4.18;1.50;;;;;;;;;;5033063;28;20112;-69
2023/07/19 13:56:40;;;;;;;3.08;1.20;;;;;;;;;;5033788;28;20096;-76
2023/07/19 13:59:05;;;;;;;4.07;1.77;;;;;;;;;;5033378;28;20030;-70
2023/07/19 14:01:30;;;;;;;3.22;1.17;;;;;;;;;;5065480;28;20032;-67
2023/07/19 14:03:56;;;;;;;2.42;1.00;;;;;;;;;;5033537;28;20083;-70
2023/07/19 14:06:21;;;;;;;1.55;1.00;;;;;;;;;;5033530;28;20079;-66
2023/07/19 14:08:47;;;;;;;3.80;1.17;;;;;;;;;;5033107;28;20028;-65
2023/07/19 14:11:12;;;;;;;4.32;1.20;;;;;;;;;;5032887;28;20104;-70
2023/07/19 14:13:38;;;;;;;4.30;1.67;;;;;;;;;;5033328;28;20112;-75
2023/07/19 14:16:04;;;;;;;5.82;2.20;;;;;;;;;;5033174;28;20028;-70
2023/07/19 14:18:29;;;;;;;9.10;3.85;;;;;;;;;;5032019;28;20073;-66
2023/07/19 14:20:55;;;;;;;3.88;1.70;;;;;;;;;;5032820;28;20029;-70
2023/07/19 14:23:22;;;;;;;4.13;1.20;;;;;;;;;;5017458;28;20476;-69
2023/07/19 14:25:48;;;;;;;1.80;0.90;;;;;;;;;;5017907;28;20029;-69
2023/07/19 14:28:13;;;;;;;4.60;1.92;;;;;;;;;;5032809;28;20394;-68
2023/07/19 14:30:39;;;;;;;3.67;1.85;;;;;;;;;;5032604;28;20475;-68
2023/07/19 14:33:04;;;;;;;4.85;1.90;;;;;;;;;;5031273;28;20041;-67
2023/07/19 14:35:30;;;;;;;2.72;1.45;;;;;;;;;;5032487;28;20033;-67